sensor_id;sensor_type;location;lat;lon;timestamp;P1;durP1;ratioP1;P2;durP2;ratioP2
49812;SDS011;35706;52.100;5.056;2023-04-29T00:00:33;43.00;;;23.27;;
49812;SDS011;35706;52.100;5.056;2023-04-29T00:01:33;50.13;;;24.30;;
49812;SDS011;35706;52.100;5.056;2023-04-29T00:02:34;47.80;;;23.63;;
49812;SDS011;35706;52.100;5.056;2023-04-29T00:03:34;51.17;;;25.48;;
49812;SDS011;35706;52.100;5.056;2023-04-29T00:04:35;50.75;;;25.10;;
49812;SDS011;35706;52.100;5.056;2023-04-29T00:05:35;46.60;;;24.08;;
49812;SDS011;35706;52.100;5.056;2023-04-29T00:06:35;48.47;;;23.63;;
49812;SDS011;35706;52.100;5.056;2023-04-29T00:07:36;42.00;;;23.48;;
49812;SDS011;35706;52.100;5.056;2023-04-29T00:08:36;53.60;;;24.90;;
49812;SDS011;35706;52.100;5.056;2023-04-29T00:09:37;44.85;;;23.65;;
49812;SDS011;35706;52.100;5.056;2023-04-29T00:10:37;45.58;;;23.40;;
49812;SDS011;35706;52.100;5.056;2023-04-29T00:11:38;41.78;;;23.00;;
49812;SDS011;35706;52.100;5.056;2023-04-29T00:12:39;46.78;;;22.23;;
49812;SDS011;35706;52.100;5.056;2023-04-29T00:13:40;46.75;;;22.70;;
49812;SDS011;35706;52.100;5.056;2023-04-29T00:14:40;46.55;;;24.40;;
49812;SDS011;35706;52.100;5.056;2023-04-29T00:15:42;46.08;;;22.60;;
49812;SDS011;35706;52.100;5.056;2023-04-29T00:16:42;48.55;;;24.23;;
49812;SDS011;35706;52.100;5.056;2023-04-29T00:17:43;50.42;;;24.50;;
49812;SDS011;35706;52.100;5.056;2023-04-29T00:18:44;49.08;;;24.75;;
49812;SDS011;35706;52.100;5.056;2023-04-29T00:19:44;44.55;;;22.75;;
49812;SDS011;35706;52.100;5.056;2023-04-29T00:20:45;50.33;;;25.65;;
49812;SDS011;35706;52.100;5.056;2023-04-29T00:21:45;48.35;;;24.92;;
49812;SDS011;35706;52.100;5.056;2023-04-29T00:22:45;47.55;;;24.77;;
49812;SDS011;35706;52.100;5.056;2023-04-29T00:23:46;52.75;;;25.33;;
49812;SDS011;35706;52.100;5.056;2023-04-29T00:24:46;52.65;;;26.00;;
49812;SDS011;35706;52.100;5.056;2023-04-29T00:25:46;45.75;;;24.85;;
49812;SDS011;35706;52.100;5.056;2023-04-29T00:26:47;50.45;;;24.95;;
49812;SDS011;35706;52.100;5.056;2023-04-29T00:27:47;46.15;;;24.58;;
49812;SDS011;35706;52.100;5.056;2023-04-29T00:28:48;45.95;;;23.92;;
49812;SDS011;35706;52.100;5.056;2023-04-29T00:29:48;46.67;;;24.27;;
49812;SDS011;35706;52.100;5.056;2023-04-29T00:30:48;48.80;;;25.65;;
49812;SDS011;35706;52.100;5.056;2023-04-29T00:31:48;51.67;;;26.40;;
49812;SDS011;35706;52.100;5.056;2023-04-29T00:32:49;49.28;;;27.45;;
49812;SDS011;35706;52.100;5.056;2023-04-29T00:33:49;46.42;;;26.40;;
49812;SDS011;35706;52.100;5.056;2023-04-29T00:34:49;56.92;;;26.52;;
49812;SDS011;35706;52.100;5.056;2023-04-29T00:35:50;50.03;;;26.70;;
49812;SDS011;35706;52.100;5.056;2023-04-29T00:36:51;50.55;;;26.10;;
49812;SDS011;35706;52.100;5.056;2023-04-29T00:37:51;56.85;;;27.77;;
49812;SDS011;35706;52.100;5.056;2023-04-29T00:38:51;53.17;;;27.42;;
49812;SDS011;35706;52.100;5.056;2023-04-29T00:39:51;52.08;;;27.63;;
49812;SDS011;35706;52.100;5.056;2023-04-29T00:40:52;54.60;;;27.63;;
49812;SDS011;35706;52.100;5.056;2023-04-29T00:41:52;58.13;;;27.77;;
49812;SDS011;35706;52.100;5.056;2023-04-29T00:42:53;59.47;;;27.30;;
49812;SDS011;35706;52.100;5.056;2023-04-29T00:43:53;50.35;;;26.27;;
49812;SDS011;35706;52.100;5.056;2023-04-29T00:44:54;53.67;;;27.55;;
49812;SDS011;35706;52.100;5.056;2023-04-29T00:45:54;58.00;;;27.90;;
49812;SDS011;35706;52.100;5.056;2023-04-29T00:46:55;59.10;;;26.35;;
49812;SDS011;35706;52.100;5.056;2023-04-29T00:47:55;52.95;;;26.63;;
49812;SDS011;35706;52.100;5.056;2023-04-29T00:48:56;55.47;;;27.40;;
49812;SDS011;35706;52.100;5.056;2023-04-29T00:49:56;47.80;;;24.23;;
49812;SDS011;35706;52.100;5.056;2023-04-29T00:50:56;53.72;;;26.42;;
49812;SDS011;35706;52.100;5.056;2023-04-29T00:51:57;51.00;;;24.63;;
49812;SDS011;35706;52.100;5.056;2023-04-29T00:52:58;58.22;;;27.02;;
49812;SDS011;35706;52.100;5.056;2023-04-29T00:53:59;59.70;;;25.15;;
49812;SDS011;35706;52.100;5.056;2023-04-29T00:55:00;48.17;;;24.10;;
49812;SDS011;35706;52.100;5.056;2023-04-29T00:56:01;53.38;;;26.13;;
49812;SDS011;35706;52.100;5.056;2023-04-29T00:57:05;52.70;;;25.70;;
49812;SDS011;35706;52.100;5.056;2023-04-29T00:58:06;62.00;;;24.83;;
49812;SDS011;35706;52.100;5.056;2023-04-29T00:59:08;49.75;;;24.90;;
49812;SDS011;35706;52.100;5.056;2023-04-29T01:00:11;63.40;;;27.65;;
49812;SDS011;35706;52.100;5.056;2023-04-29T01:01:12;60.20;;;26.15;;
49812;SDS011;35706;52.100;5.056;2023-04-29T01:02:13;49.90;;;22.35;;
49812;SDS011;35706;52.100;5.056;2023-04-29T01:03:14;51.25;;;24.00;;
49812;SDS011;35706;52.100;5.056;2023-04-29T01:04:15;52.78;;;24.58;;
49812;SDS011;35706;52.100;5.056;2023-04-29T01:05:16;48.10;;;24.08;;
49812;SDS011;35706;52.100;5.056;2023-04-29T01:06:23;46.05;;;24.10;;
49812;SDS011;35706;52.100;5.056;2023-04-29T01:10:53;49.35;;;24.20;;
49812;SDS011;35706;52.100;5.056;2023-04-29T01:12:07;50.45;;;23.90;;
49812;SDS011;35706;52.100;5.056;2023-04-29T01:13:28;48.10;;;22.55;;
49812;SDS011;35706;52.100;5.056;2023-04-29T01:14:29;47.47;;;22.80;;
49812;SDS011;35706;52.100;5.056;2023-04-29T01:15:40;49.85;;;23.70;;
49812;SDS011;35706;52.100;5.056;2023-04-29T01:16:51;42.92;;;22.02;;
49812;SDS011;35706;52.100;5.056;2023-04-29T01:17:59;41.22;;;21.88;;
49812;SDS011;35706;52.100;5.056;2023-04-29T01:20:25;41.33;;;20.90;;
49812;SDS011;35706;52.100;5.056;2023-04-29T01:21:26;41.85;;;19.67;;
49812;SDS011;35706;52.100;5.056;2023-04-29T01:22:27;43.60;;;21.67;;
49812;SDS011;35706;52.100;5.056;2023-04-29T01:23:28;35.50;;;18.98;;
49812;SDS011;35706;52.100;5.056;2023-04-29T01:24:29;40.45;;;18.70;;
49812;SDS011;35706;52.100;5.056;2023-04-29T01:25:29;29.60;;;17.10;;
49812;SDS011;35706;52.100;5.056;2023-04-29T01:26:29;31.75;;;16.00;;
49812;SDS011;35706;52.100;5.056;2023-04-29T01:27:33;30.80;;;15.15;;
49812;SDS011;35706;52.100;5.056;2023-04-29T01:30:06;27.17;;;14.25;;
49812;SDS011;35706;52.100;5.056;2023-04-29T01:39:20;27.38;;;14.15;;
49812;SDS011;35706;52.100;5.056;2023-04-29T01:40:46;22.35;;;12.65;;
49812;SDS011;35706;52.100;5.056;2023-04-29T01:42:05;22.05;;;11.88;;
49812;SDS011;35706;52.100;5.056;2023-04-29T01:43:13;27.00;;;12.88;;
49812;SDS011;35706;52.100;5.056;2023-04-29T01:44:15;22.08;;;12.63;;
49812;SDS011;35706;52.100;5.056;2023-04-29T01:45:22;19.65;;;10.95;;
49812;SDS011;35706;52.100;5.056;2023-04-29T01:46:24;24.60;;;12.55;;
49812;SDS011;35706;52.100;5.056;2023-04-29T01:47:24;26.83;;;13.45;;
49812;SDS011;35706;52.100;5.056;2023-04-29T01:48:26;24.70;;;13.07;;
49812;SDS011;35706;52.100;5.056;2023-04-29T01:49:27;24.48;;;12.02;;
49812;SDS011;35706;52.100;5.056;2023-04-29T01:50:27;19.92;;;11.93;;
49812;SDS011;35706;52.100;5.056;2023-04-29T01:51:28;22.95;;;12.45;;
49812;SDS011;35706;52.100;5.056;2023-04-29T01:52:28;21.75;;;12.00;;
49812;SDS011;35706;52.100;5.056;2023-04-29T01:53:29;19.70;;;11.43;;
49812;SDS011;35706;52.100;5.056;2023-04-29T01:54:29;23.25;;;11.68;;
49812;SDS011;35706;52.100;5.056;2023-04-29T01:55:30;18.10;;;11.45;;
49812;SDS011;35706;52.100;5.056;2023-04-29T01:56:31;19.65;;;11.77;;
49812;SDS011;35706;52.100;5.056;2023-04-29T01:57:31;23.95;;;12.30;;
49812;SDS011;35706;52.100;5.056;2023-04-29T01:58:32;21.70;;;11.02;;
49812;SDS011;35706;52.100;5.056;2023-04-29T01:59:32;21.15;;;10.75;;
49812;SDS011;35706;52.100;5.056;2023-04-29T02:00:32;20.67;;;10.43;;
49812;SDS011;35706;52.100;5.056;2023-04-29T02:01:33;19.83;;;10.23;;
49812;SDS011;35706;52.100;5.056;2023-04-29T02:02:33;19.50;;;10.15;;
49812;SDS011;35706;52.100;5.056;2023-04-29T02:03:34;16.55;;;9.32;;
49812;SDS011;35706;52.100;5.056;2023-04-29T02:04:35;19.08;;;10.38;;
49812;SDS011;35706;52.100;5.056;2023-04-29T02:05:35;17.85;;;10.05;;
49812;SDS011;35706;52.100;5.056;2023-04-29T02:06:35;19.58;;;10.70;;
49812;SDS011;35706;52.100;5.056;2023-04-29T02:07:36;13.90;;;9.73;;
49812;SDS011;35706;52.100;5.056;2023-04-29T02:08:36;16.85;;;9.95;;
49812;SDS011;35706;52.100;5.056;2023-04-29T02:09:36;20.17;;;10.32;;
49812;SDS011;35706;52.100;5.056;2023-04-29T02:10:37;13.18;;;9.85;;
49812;SDS011;35706;52.100;5.056;2023-04-29T02:11:37;16.20;;;9.35;;
49812;SDS011;35706;52.100;5.056;2023-04-29T02:12:37;12.45;;;8.60;;
49812;SDS011;35706;52.100;5.056;2023-04-29T02:13:38;17.30;;;9.35;;
49812;SDS011;35706;52.100;5.056;2023-04-29T02:14:38;17.45;;;9.43;;
49812;SDS011;35706;52.100;5.056;2023-04-29T02:15:39;17.25;;;8.55;;
49812;SDS011;35706;52.100;5.056;2023-04-29T02:16:39;16.88;;;9.20;;
49812;SDS011;35706;52.100;5.056;2023-04-29T02:17:39;17.48;;;10.23;;
49812;SDS011;35706;52.100;5.056;2023-04-29T02:18:40;15.13;;;8.68;;
49812;SDS011;35706;52.100;5.056;2023-04-29T02:19:40;20.55;;;10.20;;
49812;SDS011;35706;52.100;5.056;2023-04-29T02:20:41;22.48;;;10.52;;
49812;SDS011;35706;52.100;5.056;2023-04-29T02:21:41;17.70;;;9.98;;
49812;SDS011;35706;52.100;5.056;2023-04-29T02:22:42;22.08;;;10.55;;
49812;SDS011;35706;52.100;5.056;2023-04-29T02:23:42;20.35;;;10.35;;
49812;SDS011;35706;52.100;5.056;2023-04-29T02:24:42;16.58;;;10.60;;
49812;SDS011;35706;52.100;5.056;2023-04-29T02:25:43;18.63;;;10.70;;
49812;SDS011;35706;52.100;5.056;2023-04-29T02:26:43;22.95;;;11.15;;
49812;SDS011;35706;52.100;5.056;2023-04-29T02:27:43;18.65;;;11.68;;
49812;SDS011;35706;52.100;5.056;2023-04-29T02:28:44;19.48;;;11.13;;
49812;SDS011;35706;52.100;5.056;2023-04-29T02:29:44;17.85;;;11.23;;
49812;SDS011;35706;52.100;5.056;2023-04-29T02:30:45;17.92;;;10.60;;
49812;SDS011;35706;52.100;5.056;2023-04-29T02:31:45;21.10;;;11.90;;
49812;SDS011;35706;52.100;5.056;2023-04-29T02:32:46;19.42;;;11.70;;
49812;SDS011;35706;52.100;5.056;2023-04-29T02:33:46;18.67;;;11.10;;
49812;SDS011;35706;52.100;5.056;2023-04-29T02:34:46;24.33;;;13.40;;
49812;SDS011;35706;52.100;5.056;2023-04-29T02:35:47;19.75;;;12.50;;
49812;SDS011;35706;52.100;5.056;2023-04-29T02:36:48;26.02;;;13.73;;
49812;SDS011;35706;52.100;5.056;2023-04-29T02:37:48;26.60;;;13.55;;
49812;SDS011;35706;52.100;5.056;2023-04-29T02:38:49;24.75;;;13.57;;
49812;SDS011;35706;52.100;5.056;2023-04-29T02:39:49;26.23;;;15.43;;
49812;SDS011;35706;52.100;5.056;2023-04-29T02:40:50;26.77;;;14.07;;
49812;SDS011;35706;52.100;5.056;2023-04-29T02:41:52;26.63;;;14.65;;
49812;SDS011;35706;52.100;5.056;2023-04-29T02:42:54;27.75;;;15.15;;
49812;SDS011;35706;52.100;5.056;2023-04-29T02:43:54;26.45;;;14.57;;
49812;SDS011;35706;52.100;5.056;2023-04-29T02:44:54;24.30;;;15.15;;
49812;SDS011;35706;52.100;5.056;2023-04-29T02:45:55;28.98;;;14.95;;
49812;SDS011;35706;52.100;5.056;2023-04-29T02:46:56;29.10;;;15.98;;
49812;SDS011;35706;52.100;5.056;2023-04-29T02:47:57;25.90;;;14.93;;
49812;SDS011;35706;52.100;5.056;2023-04-29T02:48:57;26.25;;;15.23;;
49812;SDS011;35706;52.100;5.056;2023-04-29T02:49:57;24.05;;;14.63;;
49812;SDS011;35706;52.100;5.056;2023-04-29T02:50:58;26.42;;;15.40;;
49812;SDS011;35706;52.100;5.056;2023-04-29T02:51:58;29.88;;;15.45;;
49812;SDS011;35706;52.100;5.056;2023-04-29T02:52:58;28.17;;;15.23;;
49812;SDS011;35706;52.100;5.056;2023-04-29T02:53:59;28.55;;;14.45;;
49812;SDS011;35706;52.100;5.056;2023-04-29T02:54:59;31.50;;;15.88;;
49812;SDS011;35706;52.100;5.056;2023-04-29T02:55:59;26.00;;;13.68;;
49812;SDS011;35706;52.100;5.056;2023-04-29T02:57:00;27.80;;;14.82;;
49812;SDS011;35706;52.100;5.056;2023-04-29T02:58:00;27.95;;;13.82;;
49812;SDS011;35706;52.100;5.056;2023-04-29T02:59:01;24.90;;;14.10;;
49812;SDS011;35706;52.100;5.056;2023-04-29T03:00:01;24.05;;;14.20;;
49812;SDS011;35706;52.100;5.056;2023-04-29T03:01:01;25.48;;;14.07;;
49812;SDS011;35706;52.100;5.056;2023-04-29T03:02:03;23.98;;;14.15;;
49812;SDS011;35706;52.100;5.056;2023-04-29T03:03:03;26.65;;;13.68;;
49812;SDS011;35706;52.100;5.056;2023-04-29T03:04:04;21.27;;;13.05;;
49812;SDS011;35706;52.100;5.056;2023-04-29T03:05:05;20.75;;;13.32;;
49812;SDS011;35706;52.100;5.056;2023-04-29T03:06:06;24.40;;;13.88;;
49812;SDS011;35706;52.100;5.056;2023-04-29T03:07:06;26.65;;;13.88;;
49812;SDS011;35706;52.100;5.056;2023-04-29T03:08:07;23.65;;;11.75;;
49812;SDS011;35706;52.100;5.056;2023-04-29T03:09:09;23.60;;;13.20;;
49812;SDS011;35706;52.100;5.056;2023-04-29T03:10:09;25.45;;;12.02;;
49812;SDS011;35706;52.100;5.056;2023-04-29T03:11:10;27.17;;;13.65;;
49812;SDS011;35706;52.100;5.056;2023-04-29T03:12:10;26.10;;;12.93;;
49812;SDS011;35706;52.100;5.056;2023-04-29T03:13:11;27.02;;;13.35;;
49812;SDS011;35706;52.100;5.056;2023-04-29T03:14:11;25.10;;;13.70;;
49812;SDS011;35706;52.100;5.056;2023-04-29T03:15:11;24.23;;;11.70;;
49812;SDS011;35706;52.100;5.056;2023-04-29T03:16:12;21.38;;;13.48;;
49812;SDS011;35706;52.100;5.056;2023-04-29T03:17:14;30.42;;;12.95;;
49812;SDS011;35706;52.100;5.056;2023-04-29T03:18:14;23.88;;;12.23;;
49812;SDS011;35706;52.100;5.056;2023-04-29T03:19:15;29.55;;;13.70;;
49812;SDS011;35706;52.100;5.056;2023-04-29T03:20:15;25.98;;;12.65;;
49812;SDS011;35706;52.100;5.056;2023-04-29T03:21:16;27.58;;;13.00;;
49812;SDS011;35706;52.100;5.056;2023-04-29T03:22:16;24.40;;;12.95;;
49812;SDS011;35706;52.100;5.056;2023-04-29T03:23:17;24.83;;;12.13;;
49812;SDS011;35706;52.100;5.056;2023-04-29T03:24:17;31.10;;;13.63;;
49812;SDS011;35706;52.100;5.056;2023-04-29T03:25:17;23.83;;;12.32;;
49812;SDS011;35706;52.100;5.056;2023-04-29T03:26:18;20.38;;;12.32;;
49812;SDS011;35706;52.100;5.056;2023-04-29T03:27:18;23.77;;;11.43;;
49812;SDS011;35706;52.100;5.056;2023-04-29T03:28:18;25.17;;;12.95;;
49812;SDS011;35706;52.100;5.056;2023-04-29T03:29:19;23.52;;;12.95;;
49812;SDS011;35706;52.100;5.056;2023-04-29T03:30:19;27.30;;;13.57;;
49812;SDS011;35706;52.100;5.056;2023-04-29T03:31:20;25.20;;;12.98;;
49812;SDS011;35706;52.100;5.056;2023-04-29T03:32:22;22.88;;;12.30;;
49812;SDS011;35706;52.100;5.056;2023-04-29T03:33:23;21.45;;;13.45;;
49812;SDS011;35706;52.100;5.056;2023-04-29T03:34:23;22.67;;;12.80;;
49812;SDS011;35706;52.100;5.056;2023-04-29T03:35:23;29.90;;;13.05;;
49812;SDS011;35706;52.100;5.056;2023-04-29T03:36:24;19.52;;;12.13;;
49812;SDS011;35706;52.100;5.056;2023-04-29T03:37:25;20.73;;;12.27;;
49812;SDS011;35706;52.100;5.056;2023-04-29T03:38:25;26.40;;;12.82;;
49812;SDS011;35706;52.100;5.056;2023-04-29T03:39:25;23.48;;;13.18;;
49812;SDS011;35706;52.100;5.056;2023-04-29T03:40:31;21.25;;;12.05;;
49812;SDS011;35706;52.100;5.056;2023-04-29T03:41:31;27.00;;;13.98;;
49812;SDS011;35706;52.100;5.056;2023-04-29T03:42:31;22.13;;;12.52;;
49812;SDS011;35706;52.100;5.056;2023-04-29T03:43:32;26.98;;;12.80;;
49812;SDS011;35706;52.100;5.056;2023-04-29T03:44:32;23.83;;;12.40;;
49812;SDS011;35706;52.100;5.056;2023-04-29T03:45:32;21.38;;;11.93;;
49812;SDS011;35706;52.100;5.056;2023-04-29T03:46:33;23.45;;;12.77;;
49812;SDS011;35706;52.100;5.056;2023-04-29T03:47:33;27.38;;;13.73;;
49812;SDS011;35706;52.100;5.056;2023-04-29T03:48:33;23.52;;;12.77;;
49812;SDS011;35706;52.100;5.056;2023-04-29T03:49:34;23.67;;;12.35;;
49812;SDS011;35706;52.100;5.056;2023-04-29T03:50:35;27.63;;;12.55;;
49812;SDS011;35706;52.100;5.056;2023-04-29T03:51:36;26.17;;;13.05;;
49812;SDS011;35706;52.100;5.056;2023-04-29T03:52:36;27.75;;;12.48;;
49812;SDS011;35706;52.100;5.056;2023-04-29T03:53:37;24.13;;;12.55;;
49812;SDS011;35706;52.100;5.056;2023-04-29T03:54:38;30.30;;;13.32;;
49812;SDS011;35706;52.100;5.056;2023-04-29T03:55:38;23.40;;;13.05;;
49812;SDS011;35706;52.100;5.056;2023-04-29T03:56:39;20.10;;;11.90;;
49812;SDS011;35706;52.100;5.056;2023-04-29T03:57:40;19.42;;;12.02;;
49812;SDS011;35706;52.100;5.056;2023-04-29T03:58:40;24.02;;;12.60;;
49812;SDS011;35706;52.100;5.056;2023-04-29T03:59:40;28.10;;;13.60;;
49812;SDS011;35706;52.100;5.056;2023-04-29T04:00:41;20.30;;;11.60;;
49812;SDS011;35706;52.100;5.056;2023-04-29T04:01:42;25.95;;;14.10;;
49812;SDS011;35706;52.100;5.056;2023-04-29T04:02:42;20.63;;;11.18;;
49812;SDS011;35706;52.100;5.056;2023-04-29T04:03:43;27.63;;;13.07;;
49812;SDS011;35706;52.100;5.056;2023-04-29T04:04:43;26.65;;;13.05;;
49812;SDS011;35706;52.100;5.056;2023-04-29T04:05:43;23.77;;;13.35;;
49812;SDS011;35706;52.100;5.056;2023-04-29T04:06:44;24.08;;;13.25;;
49812;SDS011;35706;52.100;5.056;2023-04-29T04:07:50;23.67;;;13.95;;
49812;SDS011;35706;52.100;5.056;2023-04-29T04:08:51;24.20;;;12.07;;
49812;SDS011;35706;52.100;5.056;2023-04-29T04:09:51;22.80;;;13.13;;
49812;SDS011;35706;52.100;5.056;2023-04-29T04:10:52;21.80;;;11.60;;
49812;SDS011;35706;52.100;5.056;2023-04-29T04:11:52;24.20;;;13.75;;
49812;SDS011;35706;52.100;5.056;2023-04-29T04:12:52;22.90;;;13.25;;
49812;SDS011;35706;52.100;5.056;2023-04-29T04:13:53;21.20;;;12.70;;
49812;SDS011;35706;52.100;5.056;2023-04-29T04:14:53;23.73;;;13.35;;
49812;SDS011;35706;52.100;5.056;2023-04-29T04:15:54;22.25;;;12.35;;
49812;SDS011;35706;52.100;5.056;2023-04-29T04:16:54;25.48;;;13.40;;
49812;SDS011;35706;52.100;5.056;2023-04-29T04:17:55;24.48;;;12.93;;
49812;SDS011;35706;52.100;5.056;2023-04-29T04:18:55;24.75;;;13.43;;
49812;SDS011;35706;52.100;5.056;2023-04-29T04:19:55;22.77;;;12.15;;
49812;SDS011;35706;52.100;5.056;2023-04-29T04:20:55;29.17;;;14.38;;
49812;SDS011;35706;52.100;5.056;2023-04-29T04:21:56;23.48;;;13.88;;
49812;SDS011;35706;52.100;5.056;2023-04-29T04:22:56;24.17;;;12.60;;
49812;SDS011;35706;52.100;5.056;2023-04-29T04:23:56;22.27;;;13.02;;
49812;SDS011;35706;52.100;5.056;2023-04-29T04:24:57;25.58;;;13.77;;
49812;SDS011;35706;52.100;5.056;2023-04-29T04:25:57;26.95;;;11.73;;
49812;SDS011;35706;52.100;5.056;2023-04-29T04:26:57;25.02;;;13.05;;
49812;SDS011;35706;52.100;5.056;2023-04-29T04:27:58;25.65;;;13.70;;
49812;SDS011;35706;52.100;5.056;2023-04-29T04:28:58;23.70;;;12.48;;
49812;SDS011;35706;52.100;5.056;2023-04-29T04:29:58;25.60;;;13.05;;
49812;SDS011;35706;52.100;5.056;2023-04-29T04:30:58;23.80;;;13.45;;
49812;SDS011;35706;52.100;5.056;2023-04-29T04:31:59;23.92;;;13.20;;
49812;SDS011;35706;52.100;5.056;2023-04-29T04:32:59;26.80;;;13.73;;
49812;SDS011;35706;52.100;5.056;2023-04-29T04:34:00;21.75;;;12.77;;
49812;SDS011;35706;52.100;5.056;2023-04-29T04:35:01;22.48;;;12.48;;
49812;SDS011;35706;52.100;5.056;2023-04-29T04:36:01;23.48;;;12.00;;
49812;SDS011;35706;52.100;5.056;2023-04-29T04:37:01;32.03;;;17.63;;
49812;SDS011;35706;52.100;5.056;2023-04-29T04:38:02;49.45;;;22.63;;
49812;SDS011;35706;52.100;5.056;2023-04-29T04:39:02;51.22;;;24.13;;
49812;SDS011;35706;52.100;5.056;2023-04-29T04:40:02;42.42;;;22.13;;
49812;SDS011;35706;52.100;5.056;2023-04-29T04:41:05;31.55;;;15.85;;
49812;SDS011;35706;52.100;5.056;2023-04-29T04:42:07;27.65;;;14.63;;
49812;SDS011;35706;52.100;5.056;2023-04-29T04:43:07;27.20;;;14.23;;
49812;SDS011;35706;52.100;5.056;2023-04-29T04:44:07;29.40;;;13.82;;
49812;SDS011;35706;52.100;5.056;2023-04-29T04:45:08;26.52;;;12.77;;
49812;SDS011;35706;52.100;5.056;2023-04-29T04:46:10;24.48;;;13.88;;
49812;SDS011;35706;52.100;5.056;2023-04-29T04:47:12;23.90;;;12.52;;
49812;SDS011;35706;52.100;5.056;2023-04-29T04:48:12;27.02;;;14.45;;
49812;SDS011;35706;52.100;5.056;2023-04-29T04:49:13;25.35;;;13.27;;
49812;SDS011;35706;52.100;5.056;2023-04-29T04:50:13;23.88;;;13.80;;
49812;SDS011;35706;52.100;5.056;2023-04-29T04:51:13;23.17;;;12.10;;
49812;SDS011;35706;52.100;5.056;2023-04-29T04:52:14;28.15;;;13.77;;
49812;SDS011;35706;52.100;5.056;2023-04-29T04:53:15;25.90;;;13.50;;
49812;SDS011;35706;52.100;5.056;2023-04-29T04:54:16;27.77;;;13.85;;
49812;SDS011;35706;52.100;5.056;2023-04-29T04:55:16;24.25;;;13.40;;
49812;SDS011;35706;52.100;5.056;2023-04-29T04:56:16;28.33;;;14.63;;
49812;SDS011;35706;52.100;5.056;2023-04-29T04:57:17;24.67;;;11.68;;
49812;SDS011;35706;52.100;5.056;2023-04-29T04:58:17;23.45;;;13.45;;
49812;SDS011;35706;52.100;5.056;2023-04-29T04:59:17;22.13;;;12.55;;
49812;SDS011;35706;52.100;5.056;2023-04-29T05:00:18;30.48;;;14.82;;
49812;SDS011;35706;52.100;5.056;2023-04-29T05:01:18;25.90;;;13.25;;
49812;SDS011;35706;52.100;5.056;2023-04-29T05:02:18;28.45;;;14.18;;
49812;SDS011;35706;52.100;5.056;2023-04-29T05:03:19;24.55;;;13.35;;
49812;SDS011;35706;52.100;5.056;2023-04-29T05:04:19;23.48;;;13.50;;
49812;SDS011;35706;52.100;5.056;2023-04-29T05:05:20;30.73;;;14.23;;
49812;SDS011;35706;52.100;5.056;2023-04-29T05:06:20;27.40;;;14.18;;
49812;SDS011;35706;52.100;5.056;2023-04-29T05:07:20;27.63;;;13.82;;
49812;SDS011;35706;52.100;5.056;2023-04-29T05:08:21;28.35;;;13.40;;
49812;SDS011;35706;52.100;5.056;2023-04-29T05:09:21;27.65;;;13.98;;
49812;SDS011;35706;52.100;5.056;2023-04-29T05:10:21;32.38;;;14.15;;
49812;SDS011;35706;52.100;5.056;2023-04-29T05:11:25;30.13;;;13.68;;
49812;SDS011;35706;52.100;5.056;2023-04-29T05:12:26;28.33;;;13.98;;
49812;SDS011;35706;52.100;5.056;2023-04-29T05:13:29;26.40;;;13.85;;
49812;SDS011;35706;52.100;5.056;2023-04-29T05:14:29;22.65;;;13.10;;
49812;SDS011;35706;52.100;5.056;2023-04-29T05:15:30;28.67;;;14.38;;
49812;SDS011;35706;52.100;5.056;2023-04-29T05:16:30;26.77;;;14.70;;
49812;SDS011;35706;52.100;5.056;2023-04-29T05:17:30;22.40;;;13.48;;
49812;SDS011;35706;52.100;5.056;2023-04-29T05:18:30;25.95;;;13.57;;
49812;SDS011;35706;52.100;5.056;2023-04-29T05:19:31;30.40;;;14.07;;
49812;SDS011;35706;52.100;5.056;2023-04-29T05:20:31;29.58;;;15.07;;
49812;SDS011;35706;52.100;5.056;2023-04-29T05:21:31;28.05;;;13.70;;
49812;SDS011;35706;52.100;5.056;2023-04-29T05:22:32;29.73;;;13.90;;
49812;SDS011;35706;52.100;5.056;2023-04-29T05:23:32;32.05;;;13.20;;
49812;SDS011;35706;52.100;5.056;2023-04-29T05:24:32;25.20;;;13.85;;
49812;SDS011;35706;52.100;5.056;2023-04-29T05:25:32;18.58;;;12.13;;
49812;SDS011;35706;52.100;5.056;2023-04-29T05:26:33;24.67;;;13.50;;
49812;SDS011;35706;52.100;5.056;2023-04-29T05:27:33;34.53;;;13.50;;
49812;SDS011;35706;52.100;5.056;2023-04-29T05:28:34;24.35;;;13.43;;
49812;SDS011;35706;52.100;5.056;2023-04-29T05:29:34;24.95;;;12.65;;
49812;SDS011;35706;52.100;5.056;2023-04-29T05:30:35;26.05;;;12.48;;
49812;SDS011;35706;52.100;5.056;2023-04-29T05:31:36;30.75;;;14.52;;
49812;SDS011;35706;52.100;5.056;2023-04-29T05:32:37;22.70;;;12.68;;
49812;SDS011;35706;52.100;5.056;2023-04-29T05:33:38;26.42;;;11.98;;
49812;SDS011;35706;52.100;5.056;2023-04-29T05:34:38;23.40;;;12.55;;
49812;SDS011;35706;52.100;5.056;2023-04-29T05:35:38;27.13;;;12.95;;
49812;SDS011;35706;52.100;5.056;2023-04-29T05:36:39;25.50;;;13.88;;
49812;SDS011;35706;52.100;5.056;2023-04-29T05:37:39;27.08;;;12.55;;
49812;SDS011;35706;52.100;5.056;2023-04-29T05:38:39;27.60;;;13.30;;
49812;SDS011;35706;52.100;5.056;2023-04-29T05:39:40;25.42;;;13.05;;
49812;SDS011;35706;52.100;5.056;2023-04-29T05:40:40;24.85;;;13.27;;
49812;SDS011;35706;52.100;5.056;2023-04-29T05:41:40;28.20;;;13.68;;
49812;SDS011;35706;52.100;5.056;2023-04-29T05:42:41;25.10;;;13.00;;
49812;SDS011;35706;52.100;5.056;2023-04-29T05:43:41;31.75;;;13.13;;
49812;SDS011;35706;52.100;5.056;2023-04-29T05:44:41;23.10;;;11.93;;
49812;SDS011;35706;52.100;5.056;2023-04-29T05:45:45;24.77;;;13.30;;
49812;SDS011;35706;52.100;5.056;2023-04-29T05:46:47;26.60;;;13.10;;
49812;SDS011;35706;52.100;5.056;2023-04-29T05:47:47;25.15;;;12.48;;
49812;SDS011;35706;52.100;5.056;2023-04-29T05:48:47;26.88;;;13.50;;
49812;SDS011;35706;52.100;5.056;2023-04-29T05:49:48;23.70;;;11.85;;
49812;SDS011;35706;52.100;5.056;2023-04-29T05:50:48;26.95;;;13.00;;
49812;SDS011;35706;52.100;5.056;2023-04-29T05:51:49;24.30;;;12.57;;
49812;SDS011;35706;52.100;5.056;2023-04-29T05:52:49;25.98;;;13.25;;
49812;SDS011;35706;52.100;5.056;2023-04-29T05:53:50;23.27;;;12.65;;
49812;SDS011;35706;52.100;5.056;2023-04-29T05:54:51;26.73;;;13.70;;
49812;SDS011;35706;52.100;5.056;2023-04-29T05:55:51;30.63;;;13.45;;
49812;SDS011;35706;52.100;5.056;2023-04-29T05:56:51;28.10;;;12.77;;
49812;SDS011;35706;52.100;5.056;2023-04-29T05:57:52;20.10;;;11.50;;
49812;SDS011;35706;52.100;5.056;2023-04-29T05:58:52;18.33;;;10.23;;
49812;SDS011;35706;52.100;5.056;2023-04-29T05:59:52;25.88;;;11.35;;
49812;SDS011;35706;52.100;5.056;2023-04-29T06:00:54;22.80;;;11.52;;
49812;SDS011;35706;52.100;5.056;2023-04-29T06:01:54;19.60;;;10.95;;
49812;SDS011;35706;52.100;5.056;2023-04-29T06:02:55;25.90;;;12.95;;
49812;SDS011;35706;52.100;5.056;2023-04-29T06:03:56;27.33;;;11.32;;
49812;SDS011;35706;52.100;5.056;2023-04-29T06:04:56;20.70;;;11.55;;
49812;SDS011;35706;52.100;5.056;2023-04-29T06:05:56;19.58;;;9.90;;
49812;SDS011;35706;52.100;5.056;2023-04-29T06:06:57;19.08;;;10.55;;
49812;SDS011;35706;52.100;5.056;2023-04-29T06:07:57;22.27;;;12.02;;
49812;SDS011;35706;52.100;5.056;2023-04-29T06:08:59;21.48;;;10.38;;
49812;SDS011;35706;52.100;5.056;2023-04-29T06:09:59;17.98;;;9.63;;
49812;SDS011;35706;52.100;5.056;2023-04-29T06:10:59;22.23;;;12.23;;